Time;durP1;ratioP1;P1;durP2;ratioP2;P2;SDS_P1;SDS_P2;PMS_P1;PMS_P2;Temp;Humidity;BMP_temperature;BMP_pressure;BME280_temperature;BME280_humidity;BME280_pressure;Samples;Min_cycle;Max_cycle;Signal;HPM_P1;HPM_P2
2022/02/16 00:00:17;;;;;;;42.03;16.10;;;7.70;99.90;;;;;;5010969;28;20045;-73
2022/02/16 00:02:44;;;;;;;51.55;19.17;;;7.70;99.90;;;;;;5013881;28;20115;-74
2022/02/16 00:05:13;;;;;;;51.47;19.45;;;7.70;99.90;;;;;;5011091;28;22984;-73
2022/02/16 00:07:40;;;;;;;46.20;18.10;;;7.60;99.90;;;;;;5010656;28;20047;-74
2022/02/16 00:10:09;;;;;;;47.15;18.15;;;7.70;99.90;;;;;;5008391;28;20142;-74
2022/02/16 00:12:37;;;;;;;46.80;18.73;;;7.60;99.90;;;;;;5007022;28;20131;-74
2022/02/16 00:15:05;;;;;;;53.55;19.67;;;7.60;99.90;;;;;;5005173;28;20496;-74
2022/02/16 00:17:33;;;;;;;48.20;19.83;;;7.60;99.90;;;;;;5008852;28;20040;-73
2022/02/16 00:20:01;;;;;;;52.15;18.50;;;7.70;99.90;;;;;;5011400;28;20215;-73
2022/02/16 00:22:29;;;;;;;55.60;18.95;;;7.70;99.90;;;;;;5007742;28;20522;-74
2022/02/16 00:24:57;;;;;;;53.05;20.27;;;7.50;99.90;;;;;;5006579;28;20157;-73
2022/02/16 00:27:24;;;;;;;50.97;20.08;;;7.60;99.90;;;;;;5011692;28;20052;-74
2022/02/16 00:29:51;;;;;;;53.17;19.05;;;7.60;99.90;;;;;;4999051;28;20149;-73
2022/02/16 00:32:18;;;;;;;52.15;18.83;;;7.60;99.90;;;;;;5008041;28;20057;-74
2022/02/16 00:34:45;;;;;;;52.60;19.73;;;7.50;99.90;;;;;;5033368;28;20037;-73
2022/02/16 00:37:12;;;;;;;49.72;19.08;;;7.60;99.90;;;;;;5017466;28;20064;-74
2022/02/16 00:39:39;;;;;;;50.13;18.58;;;7.60;99.90;;;;;;5025309;28;20073;-74
2022/02/16 00:42:06;;;;;;;49.55;18.55;;;7.60;99.90;;;;;;4998384;28;20059;-73
2022/02/16 00:44:34;;;;;;;52.35;18.85;;;7.50;99.90;;;;;;5011537;28;20045;-73
2022/02/16 00:47:01;;;;;;;56.13;18.90;;;7.60;99.90;;;;;;5013031;28;20060;-74
2022/02/16 00:49:29;;;;;;;53.25;19.30;;;7.60;99.90;;;;;;5018147;28;21546;-73
2022/02/16 00:51:56;;;;;;;48.70;19.00;;;7.60;99.90;;;;;;5034797;28;20044;-73
2022/02/16 00:54:29;;;;;;;48.97;18.97;;;7.60;99.90;;;;;;5015444;28;20135;-73
2022/02/16 00:57:01;;;;;;;47.33;18.05;;;7.50;99.90;;;;;;5038172;28;20302;-73
2022/02/16 00:59:30;;;;;;;51.47;17.77;;;7.40;99.90;;;;;;5012445;28;20064;-73
2022/02/16 01:02:00;;;;;;;46.40;17.52;;;7.40;99.90;;;;;;5013501;28;20049;-74
2022/02/16 01:04:29;;;;;;;44.10;16.50;;;7.50;99.90;;;;;;5035611;28;20037;-73
2022/02/16 01:06:57;;;;;;;45.78;17.38;;;7.50;99.90;;;;;;5012383;28;21153;-73
2022/02/16 01:09:24;;;;;;;52.45;19.23;;;7.50;99.90;;;;;;5003144;28;20068;-73
2022/02/16 01:11:53;;;;;;;45.25;17.88;;;7.50;99.90;;;;;;5018061;28;20459;-73
2022/02/16 01:14:26;;;;;;;;;;;7.50;99.90;;;;;;5016429;28;20036;-73
2022/02/16 01:17:15;;;;;;;48.83;17.73;;;7.50;99.90;;;;;;5007555;28;19925;-73
2022/02/16 01:19:54;;;;;;;48.92;19.42;;;7.50;99.90;;;;;;5015501;28;20052;-73
2022/02/16 01:22:23;;;;;;;45.50;17.40;;;7.40;99.90;;;;;;4998906;28;20161;-73
2022/02/16 01:24:51;;;;;;;49.25;18.45;;;7.40;99.90;;;;;;4995671;28;20875;-73
2022/02/16 01:27:21;;;;;;;48.67;18.35;;;7.50;99.90;;;;;;5017382;28;20045;-73
2022/02/16 01:29:52;;;;;;;52.70;17.50;;;7.40;99.90;;;;;;4993479;28;20111;-73
2022/02/16 01:32:26;;;;;;;48.22;17.83;;;7.40;99.90;;;;;;5013844;28;20471;-73
2022/02/16 01:34:54;;;;;;;46.25;16.70;;;7.40;99.90;;;;;;5029442;28;20049;-73
2022/02/16 01:37:22;;;;;;;56.38;19.75;;;7.30;99.90;;;;;;5005158;28;20064;-73
2022/02/16 01:39:49;;;;;;;56.10;19.00;;;7.20;99.90;;;;;;4996868;28;20045;-73
2022/02/16 01:42:18;;;;;;;48.83;19.30;;;7.30;99.90;;;;;;5013680;28;20037;-73
2022/02/16 01:44:51;;;;;;;51.47;17.83;;;7.30;99.90;;;;;;5011786;28;20146;-73
2022/02/16 01:47:19;;;;;;;43.38;17.45;;;7.30;99.90;;;;;;5017344;28;20525;-73
2022/02/16 01:49:47;;;;;;;50.90;18.23;;;7.30;99.90;;;;;;5010820;28;20053;-73
2022/02/16 01:52:17;;;;;;;54.83;19.60;;;7.40;99.90;;;;;;5018078;28;20656;-73
2022/02/16 01:54:48;;;;;;;49.28;18.73;;;7.30;99.90;;;;;;5004681;28;20596;-73
2022/02/16 01:57:16;;;;;;;49.33;18.65;;;7.30;99.90;;;;;;5008689;28;20049;-73
2022/02/16 01:59:48;;;;;;;51.28;19.00;;;7.20;99.90;;;;;;5007356;28;20037;-73
2022/02/16 02:02:18;;;;;;;48.67;18.77;;;7.20;99.90;;;;;;5019047;28;20056;-73
2022/02/16 02:04:50;;;;;;;51.55;18.35;;;7.10;99.90;;;;;;5013808;28;20145;-73
2022/02/16 02:07:18;;;;;;;48.75;18.42;;;7.10;99.90;;;;;;4999363;28;20044;-73
2022/02/16 02:09:45;;;;;;;48.80;17.70;;;7.10;99.90;;;;;;5021752;28;20046;-74
2022/02/16 02:12:12;;;;;;;49.70;19.13;;;7.00;99.90;;;;;;4997477;28;20045;-73
2022/02/16 02:14:42;;;;;;;48.60;17.02;;;7.00;99.90;;;;;;5029361;28;20042;-73
2022/02/16 02:17:15;;;;;;;51.42;16.92;;;7.10;99.90;;;;;;5014307;28;20049;-74
2022/02/16 02:19:42;;;;;;;51.05;19.52;;;7.10;99.90;;;;;;5013945;28;20938;-73
2022/02/16 02:22:10;;;;;;;49.00;18.38;;;7.10;99.90;;;;;;5014638;28;20044;-73
2022/02/16 02:24:37;;;;;;;48.65;19.75;;;7.30;99.90;;;;;;5009232;28;20191;-73
2022/02/16 02:27:04;;;;;;;47.22;17.17;;;7.20;99.90;;;;;;5015252;28;20061;-73
2022/02/16 02:29:32;;;;;;;43.88;17.45;;;7.10;99.90;;;;;;5022582;28;20057;-73
2022/02/16 02:32:03;;;;;;;54.38;19.65;;;7.20;99.90;;;;;;5014195;28;20073;-73
2022/02/16 02:34:30;;;;;;;48.28;17.88;;;7.30;99.90;;;;;;5003489;28;20175;-73
2022/02/16 02:36:57;;;;;;;50.55;18.60;;;7.30;99.90;;;;;;5010986;28;20139;-74
2022/02/16 02:39:25;;;;;;;52.13;18.50;;;7.30;99.90;;;;;;5036066;28;20508;-73
2022/02/16 02:41:52;;;;;;;53.35;20.25;;;7.30;99.90;;;;;;5021584;28;20052;-73
2022/02/16 02:44:19;;;;;;;56.00;19.92;;;7.20;99.90;;;;;;5012479;28;20053;-73
2022/02/16 02:46:46;;;;;;;48.53;18.98;;;7.20;99.90;;;;;;5013747;28;20060;-73
2022/02/16 02:49:17;;;;;;;56.00;18.90;;;7.30;99.90;;;;;;5022915;28;20045;-74
2022/02/16 02:51:45;;;;;;;54.33;18.63;;;7.20;99.90;;;;;;5011543;28;20151;-73
2022/02/16 02:54:13;;;;;;;48.45;17.98;;;7.20;99.90;;;;;;5028769;28;20052;-74
2022/02/16 02:56:42;;;;;;;49.50;18.75;;;7.20;99.90;;;;;;5008975;28;20052;-73
2022/02/16 02:59:09;;;;;;;53.80;17.20;;;7.10;99.90;;;;;;5013118;28;20037;-73
2022/02/16 03:01:40;;;;;;;51.00;17.90;;;7.10;99.90;;;;;;5021340;28;20539;-73
2022/02/16 03:04:08;;;;;;;52.38;19.75;;;7.20;99.90;;;;;;5014200;28;20037;-73
2022/02/16 03:06:37;;;;;;;55.97;19.45;;;7.20;99.90;;;;;;5015003;28;20541;-73
2022/02/16 03:09:04;;;;;;;53.17;19.80;;;7.20;99.90;;;;;;4998018;28;20110;-73
2022/02/16 03:11:31;;;;;;;56.45;18.98;;;7.20;99.90;;;;;;5014492;28;20048;-73
2022/02/16 03:13:58;;;;;;;52.75;18.90;;;7.30;99.90;;;;;;5015068;28;20175;-73
2022/02/16 03:16:32;;;;;;;50.63;19.10;;;7.30;99.90;;;;;;5014575;28;20045;-74
2022/02/16 03:18:59;;;;;;;47.45;18.13;;;7.30;99.90;;;;;;5008595;28;20178;-73
2022/02/16 03:21:26;;;;;;;53.53;19.52;;;7.40;99.90;;;;;;4999210;28;20038;-73
2022/02/16 03:23:54;;;;;;;48.55;17.88;;;7.40;99.90;;;;;;5005826;28;20717;-73
2022/02/16 03:26:21;;;;;;;52.65;19.10;;;7.40;99.90;;;;;;5004033;28;21082;-73
2022/02/16 03:28:49;;;;;;;54.85;19.95;;;7.40;99.90;;;;;;5015889;28;20698;-73
2022/02/16 03:31:20;;;;;;;51.70;20.55;;;7.30;99.90;;;;;;5012435;28;20055;-73
2022/02/16 03:33:54;;;;;;;50.67;18.13;;;7.40;99.90;;;;;;5013135;28;20568;-73
2022/02/16 03:36:21;;;;;;;51.38;18.35;;;7.40;99.90;;;;;;5034871;28;20664;-73
2022/02/16 03:38:48;;;;;;;57.65;19.17;;;7.30;99.90;;;;;;5003715;28;20110;-73
2022/02/16 03:41:21;;;;;;;51.70;19.02;;;7.30;99.90;;;;;;5019026;28;20200;-74
2022/02/16 03:43:48;;;;;;;57.22;21.63;;;7.30;99.90;;;;;;4997661;28;20046;-73
2022/02/16 03:46:19;;;;;;;54.97;20.90;;;7.30;99.90;;;;;;5035122;28;20463;-73
2022/02/16 03:48:47;;;;;;;55.67;19.27;;;7.30;99.90;;;;;;5012406;28;20073;-73
2022/02/16 03:51:15;;;;;;;55.83;18.92;;;7.30;99.90;;;;;;5014480;28;20076;-73
2022/02/16 03:53:44;;;;;;;53.22;18.83;;;7.30;99.90;;;;;;5013412;28;20053;-73
2022/02/16 03:56:11;;;;;;;48.30;19.27;;;7.20;99.90;;;;;;5014392;28;20411;-73
2022/02/16 03:58:40;;;;;;;50.28;19.10;;;7.20;99.90;;;;;;5007060;28;20499;-73
2022/02/16 04:01:08;;;;;;;54.30;19.13;;;7.10;99.90;;;;;;5032119;28;20063;-73
2022/02/16 04:03:35;;;;;;;48.03;17.67;;;6.90;99.90;;;;;;5034442;28;20740;-73
2022/02/16 04:06:03;;;;;;;54.22;19.10;;;6.90;99.90;;;;;;5015287;28;20049;-73
2022/02/16 04:08:31;;;;;;;44.85;18.00;;;6.70;99.90;;;;;;5013977;28;20714;-73
2022/02/16 04:10:58;;;;;;;52.58;19.23;;;6.70;99.90;;;;;;5014171;28;20049;-73
2022/02/16 04:13:25;;;;;;;50.55;18.15;;;6.60;99.90;;;;;;5015032;28;20213;-73
2022/02/16 04:15:54;;;;;;;50.40;19.25;;;6.70;99.90;;;;;;5014583;28;20038;-73
2022/02/16 04:18:21;;;;;;;51.95;18.90;;;6.80;99.90;;;;;;5013167;28;20029;-73
2022/02/16 04:20:49;;;;;;;56.88;18.48;;;6.80;99.90;;;;;;5010349;28;20048;-74
2022/02/16 04:23:19;;;;;;;57.83;19.90;;;6.90;99.90;;;;;;5001232;28;20045;-73
2022/02/16 04:25:46;;;;;;;52.20;18.50;;;7.00;99.90;;;;;;5017540;28;20172;-73
2022/02/16 04:28:14;;;;;;;48.97;17.98;;;7.00;99.90;;;;;;5021224;28;20049;-73
2022/02/16 04:30:41;;;;;;;50.55;18.92;;;6.90;99.90;;;;;;5021616;28;20056;-73
2022/02/16 04:33:09;;;;;;;52.28;18.80;;;6.90;99.90;;;;;;5019414;28;20045;-73
2022/02/16 04:35:37;;;;;;;55.08;18.75;;;7.00;99.90;;;;;;4998749;28;20135;-73
2022/02/16 04:38:08;;;;;;;58.15;19.13;;;7.00;99.90;;;;;;5017624;28;20045;-73
2022/02/16 04:40:36;;;;;;;59.05;19.65;;;7.00;99.90;;;;;;4997050;28;20168;-73
2022/02/16 04:43:05;;;;;;;58.45;19.30;;;6.90;99.90;;;;;;5022458;28;20049;-73
2022/02/16 04:45:34;;;;;;;54.55;18.67;;;6.90;99.90;;;;;;5015563;28;20096;-73
2022/02/16 04:48:04;;;;;;;46.50;19.05;;;6.90;99.90;;;;;;5017496;28;20053;-73
2022/02/16 04:50:33;;;;;;;49.42;18.30;;;6.80;99.90;;;;;;5032445;28;20052;-73
2022/02/16 04:53:04;;;;;;;51.00;20.00;;;6.80;99.90;;;;;;5016619;28;20051;-73
2022/02/16 04:55:35;;;;;;;50.78;18.52;;;6.70;99.90;;;;;;5017976;28;20042;-73
2022/02/16 04:58:09;;;;;;;52.10;18.70;;;6.70;99.90;;;;;;5014876;28;20440;-74
2022/02/16 05:00:36;;;;;;;51.40;19.27;;;6.70;99.90;;;;;;5015920;28;20180;-73
2022/02/16 05:03:14;;;;;;;51.17;17.63;;;6.70;99.90;;;;;;5003955;28;20040;-73
2022/02/16 05:05:43;;;;;;;48.25;18.00;;;6.90;99.90;;;;;;5018080;28;20052;-73
2022/02/16 05:08:11;;;;;;;53.97;18.83;;;7.00;99.90;;;;;;5027210;28;20135;-73
2022/02/16 05:10:38;;;;;;;49.45;19.13;;;7.00;99.90;;;;;;5029323;28;20575;-73
2022/02/16 05:13:10;;;;;;;44.70;18.10;;;7.10;99.90;;;;;;5031277;28;20068;-73
2022/02/16 05:15:37;;;;;;;53.78;20.05;;;7.10;99.90;;;;;;5019693;28;20083;-74
2022/02/16 05:18:04;;;;;;;49.92;19.40;;;7.20;99.90;;;;;;5020748;28;20044;-74
2022/02/16 05:21:01;;;;;;;49.00;17.02;;;7.20;99.90;;;;;;5027179;28;20052;-73
2022/02/16 05:23:28;;;;;;;49.15;18.95;;;7.20;99.90;;;;;;5022422;28;20095;-73
2022/02/16 05:26:03;;;;;;;54.22;20.17;;;7.30;99.90;;;;;;5010831;28;20068;-73
2022/02/16 05:28:30;;;;;;;52.65;19.35;;;7.30;99.90;;;;;;5023487;28;20056;-74
2022/02/16 05:30:58;;;;;;;51.83;20.20;;;7.10;99.90;;;;;;4999060;28;20044;-74
2022/02/16 05:33:26;;;;;;;56.83;21.63;;;7.10;99.90;;;;;;5017154;28;20833;-74
2022/02/16 05:35:53;;;;;;;60.10;21.65;;;7.10;99.90;;;;;;5014559;28;20049;-73
2022/02/16 05:38:21;;;;;;;62.75;23.70;;;7.10;99.90;;;;;;4999726;28;20045;-73
2022/02/16 05:40:49;;;;;;;64.88;24.40;;;7.30;99.90;;;;;;5018057;28;20041;-73
2022/02/16 05:43:17;;;;;;;64.35;24.80;;;7.20;99.90;;;;;;5014052;28;20530;-74
2022/02/16 05:45:46;;;;;;;65.72;25.85;;;7.30;99.90;;;;;;5017467;28;20049;-73
2022/02/16 05:48:20;;;;;;;62.95;25.02;;;7.20;99.90;;;;;;5013515;28;20049;-73
2022/02/16 05:50:51;;;;;;;57.75;21.92;;;7.20;99.90;;;;;;5015692;28;20451;-74
2022/02/16 05:53:19;;;;;;;60.83;23.95;;;7.20;99.90;;;;;;5016698;28;20132;-73
2022/02/16 05:55:46;;;;;;;59.28;21.42;;;7.10;99.90;;;;;;5024278;28;20041;-73
2022/02/16 05:58:13;;;;;;;56.35;21.52;;;7.20;99.90;;;;;;5008277;28;20048;-73
2022/02/16 06:00:40;;;;;;;59.95;22.00;;;7.20;99.90;;;;;;4999617;28;20043;-73
2022/02/16 06:03:20;;;;;;;65.35;22.95;;;7.20;99.90;;;;;;4998796;28;20052;-73
2022/02/16 06:05:47;;;;;;;106.97;40.95;;;7.10;99.90;;;;;;5031162;28;20064;-73
2022/02/16 06:08:15;;;;;;;81.80;36.47;;;7.00;99.90;;;;;;5004167;28;20808;-73
2022/02/16 06:10:42;;;;;;;71.25;32.42;;;6.90;99.90;;;;;;5033288;28;20779;-73
2022/02/16 06:13:09;;;;;;;57.15;22.35;;;6.80;99.90;;;;;;5015801;28;20844;-73
2022/02/16 06:15:36;;;;;;;53.38;19.40;;;6.70;99.90;;;;;;5017007;28;20038;-73
2022/02/16 06:18:04;;;;;;;51.28;19.48;;;6.80;99.90;;;;;;5000550;28;20042;-74
2022/02/16 06:20:31;;;;;;;64.28;20.40;;;6.80;99.90;;;;;;5013180;28;20044;-73
2022/02/16 06:22:58;;;;;;;52.17;19.33;;;6.90;99.90;;;;;;5020543;28;20041;-73
2022/02/16 06:25:26;;;;;;;47.00;18.92;;;6.80;99.90;;;;;;5013663;28;20081;-74
2022/02/16 06:27:54;;;;;;;62.97;22.15;;;6.80;99.90;;;;;;5021672;28;20041;-73
2022/02/16 06:30:22;;;;;;;47.92;19.70;;;6.90;99.90;;;;;;5020947;28;20045;-73
2022/02/16 06:32:53;;;;;;;52.53;18.83;;;7.00;99.90;;;;;;5018649;28;20144;-74
2022/02/16 06:35:22;;;;;;;52.92;19.30;;;7.10;99.90;;;;;;5013049;28;20052;-74
2022/02/16 06:37:49;;;;;;;54.13;20.05;;;6.90;99.90;;;;;;5013206;28;20461;-73
2022/02/16 06:40:16;;;;;;;54.95;20.48;;;6.90;99.90;;;;;;5029275;28;20045;-74
2022/02/16 06:42:46;;;;;;;57.85;20.88;;;6.90;99.90;;;;;;5020734;28;22260;-73
2022/02/16 06:45:15;;;;;;;52.38;18.88;;;6.90;99.90;;;;;;5013297;28;20056;-73
2022/02/16 06:47:45;;;;;;;54.63;20.70;;;6.70;99.90;;;;;;5014033;28;20036;-73
2022/02/16 06:50:14;;;;;;;52.30;19.58;;;6.70;99.90;;;;;;4999524;28;20041;-73
2022/02/16 06:52:48;;;;;;;55.80;20.92;;;6.80;99.90;;;;;;4996646;28;20044;-73
2022/02/16 06:55:16;;;;;;;53.83;21.50;;;6.90;99.90;;;;;;5016093;28;20045;-73
2022/02/16 06:57:47;;;;;;;60.28;20.75;;;6.90;99.90;;;;;;4996511;28;20511;-74
2022/02/16 07:00:16;;;;;;;54.15;20.77;;;6.80;99.90;;;;;;5003793;28;20049;-73
2022/02/16 07:02:45;;;;;;;52.63;20.67;;;6.80;99.90;;;;;;4994071;28;20075;-73
2022/02/16 07:05:15;;;;;;;61.43;21.37;;;6.90;99.90;;;;;;5015690;28;20053;-73
2022/02/16 07:07:44;;;;;;;62.35;21.75;;;6.90;99.90;;;;;;5000406;28;20416;-73
2022/02/16 07:10:11;;;;;;;67.22;24.48;;;6.70;99.90;;;;;;4999716;28;20045;-73
2022/02/16 07:12:39;;;;;;;80.38;27.30;;;6.50;99.90;;;;;;5016556;28;22180;-73
2022/02/16 07:15:13;;;;;;;65.18;23.77;;;6.60;99.90;;;;;;5013697;28;20132;-73
2022/02/16 07:17:48;;;;;;;69.35;22.83;;;6.70;99.90;;;;;;5018901;28;20041;-73
2022/02/16 07:20:16;;;;;;;64.32;21.35;;;6.80;99.90;;;;;;5022689;28;20133;-73
2022/02/16 07:22:46;;;;;;;64.82;22.77;;;6.90;99.90;;;;;;5012974;28;20060;-73
2022/02/16 07:25:14;;;;;;;67.60;24.38;;;6.90;99.90;;;;;;5015700;28;20517;-73
2022/02/16 07:28:03;;;;;;;64.45;23.65;;;7.00;99.90;;;;;;5031885;28;20041;-75
2022/02/16 07:30:31;;;;;;;66.50;23.50;;;7.10;99.90;;;;;;5016537;28;20118;-73
2022/02/16 07:32:58;;;;;;;59.85;22.52;;;7.10;99.90;;;;;;5005132;28;20554;-74
2022/02/16 07:35:26;;;;;;;59.65;22.13;;;7.10;99.90;;;;;;5013105;28;20110;-74
2022/02/16 07:37:55;;;;;;;56.92;21.25;;;7.20;99.90;;;;;;4997525;28;20041;-73
2022/02/16 07:40:22;;;;;;;66.72;22.83;;;7.20;99.90;;;;;;5016095;28;20090;-74
2022/02/16 07:42:50;;;;;;;64.47;21.40;;;7.20;99.90;;;;;;5010766;28;20689;-74
2022/02/16 07:45:26;;;;;;;61.55;21.52;;;7.20;99.90;;;;;;5035813;28;20544;-74
2022/02/16 07:47:56;;;;;;;60.78;20.98;;;7.20;99.90;;;;;;4997611;28;20972;-74
2022/02/16 07:50:23;;;;;;;72.80;26.60;;;7.30;99.90;;;;;;5012008;28;20037;-74
2022/02/16 07:53:04;;;;;;;108.57;34.03;;;7.40;99.90;;;;;;5036510;28;20051;-74
2022/02/16 07:55:35;;;;;;;88.70;34.53;;;7.30;99.90;;;;;;5012857;28;20053;-74
2022/02/16 07:58:04;;;;;;;266.38;93.70;;;7.40;99.90;;;;;;5024846;28;20069;-73
2022/02/16 08:00:34;;;;;;;128.10;48.42;;;7.50;99.90;;;;;;5036279;28;20037;-73
2022/02/16 08:03:10;;;;;;;102.35;42.83;;;7.50;99.90;;;;;;5002513;28;20054;-73
2022/02/16 08:05:40;;;;;;;78.57;28.10;;;7.50;99.90;;;;;;5018899;28;20036;-74
2022/02/16 08:08:10;;;;;;;93.13;32.03;;;7.40;99.90;;;;;;5032226;28;20045;-74
2022/02/16 08:10:39;;;;;;;171.55;54.35;;;7.40;99.90;;;;;;5014330;28;20037;-73
2022/02/16 08:13:06;;;;;;;266.52;81.95;;;7.40;99.90;;;;;;5034106;28;20483;-74
2022/02/16 08:15:51;;;;;;;103.22;34.70;;;7.30;99.90;;;;;;5018869;28;20045;-74
2022/02/16 08:18:19;;;;;;;98.88;38.28;;;7.40;99.90;;;;;;5021626;28;20072;-74
2022/02/16 08:20:47;;;;;;;93.97;37.60;;;7.50;99.90;;;;;;5013165;28;20119;-74
2022/02/16 08:23:28;;;;;;;98.78;35.90;;;7.50;99.90;;;;;;5018699;28;20664;-74
2022/02/16 08:25:57;;;;;;;90.13;33.47;;;7.60;99.90;;;;;;5027093;28;20073;-73
2022/02/16 08:28:25;;;;;;;81.50;27.27;;;7.70;99.90;;;;;;5013557;28;20049;-74
2022/02/16 08:30:53;;;;;;;84.53;33.75;;;7.70;99.90;;;;;;4999618;28;20132;-74
2022/02/16 08:33:36;;;;;;;58.88;23.38;;;7.80;99.90;;;;;;5010335;28;20087;-73
2022/02/16 08:36:11;;;;;;;70.00;22.85;;;8.00;99.90;;;;;;4984851;28;20104;-74
2022/02/16 08:38:39;;;;;;;73.82;24.13;;;8.00;99.90;;;;;;5001717;28;20108;-74
2022/02/16 08:41:07;;;;;;;59.25;21.33;;;8.00;99.90;;;;;;5006763;28;20134;-74
2022/02/16 08:43:36;;;;;;;55.90;22.55;;;8.00;99.90;;;;;;5001177;28;20152;-73
2022/02/16 08:46:03;;;;;;;61.67;21.98;;;8.20;99.90;;;;;;5017297;28;20052;-74
2022/02/16 08:48:30;;;;;;;65.72;22.63;;;8.20;99.90;;;;;;5015758;28;20069;-74
2022/02/16 08:50:58;;;;;;;65.55;24.15;;;8.20;99.90;;;;;;5014393;28;20540;-74
2022/02/16 08:53:27;;;;;;;64.18;24.55;;;8.30;99.90;;;;;;4997428;28;20180;-74
2022/02/16 08:56:00;;;;;;;58.05;21.98;;;8.50;99.90;;;;;;5017796;28;20042;-74
2022/02/16 08:58:28;;;;;;;76.75;25.40;;;8.80;99.90;;;;;;5014098;28;20045;-74
2022/02/16 09:00:56;;;;;;;48.35;17.77;;;9.00;99.90;;;;;;5017886;28;20091;-74
2022/02/16 09:03:24;;;;;;;52.60;20.65;;;9.10;99.90;;;;;;5018982;28;20777;-74
2022/02/16 09:05:51;;;;;;;62.58;23.52;;;9.20;99.90;;;;;;5026718;28;20115;-74
2022/02/16 09:08:19;;;;;;;53.78;19.65;;;9.10;99.90;;;;;;5014055;28;20045;-74
2022/02/16 09:10:47;;;;;;;42.67;16.08;;;9.00;99.90;;;;;;5016133;28;20042;-74
2022/02/16 09:13:14;;;;;;;44.85;17.95;;;9.00;99.90;;;;;;5016200;28;20127;-74
2022/02/16 09:15:41;;;;;;;49.10;17.40;;;8.80;99.90;;;;;;5013321;28;20570;-74
2022/02/16 09:18:09;;;;;;;32.83;11.57;;;9.00;99.90;;;;;;5019868;28;20041;-74
2022/02/16 09:20:36;;;;;;;29.92;11.15;;;9.00;99.90;;;;;;5016679;28;20501;-75
2022/02/16 09:23:03;;;;;;;37.85;14.40;;;9.00;99.90;;;;;;5022380;28;20053;-74
2022/02/16 09:25:31;;;;;;;28.38;12.98;;;8.90;99.90;;;;;;4997306;28;20140;-74
2022/02/16 09:27:59;;;;;;;18.98;8.55;;;8.80;99.90;;;;;;5019757;28;20111;-74
2022/02/16 09:30:30;;;;;;;19.05;7.10;;;8.50;99.90;;;;;;5001977;28;20122;-74
2022/02/16 09:32:57;;;;;;;20.13;8.52;;;8.50;99.90;;;;;;5016241;28;20049;-74
2022/02/16 09:35:24;;;;;;;17.92;6.97;;;8.40;99.90;;;;;;5015415;28;20045;-74
2022/02/16 09:37:52;;;;;;;18.95;7.78;;;8.40;99.90;;;;;;5016863;28;20148;-74
2022/02/16 09:40:19;;;;;;;26.77;10.30;;;8.40;99.90;;;;;;5010652;28;20513;-74
2022/02/16 09:42:47;;;;;;;16.02;6.45;;;8.40;99.90;;;;;;5015452;28;20164;-74
2022/02/16 09:45:15;;;;;;;17.60;8.27;;;8.30;99.90;;;;;;5011385;28;20049;-73
2022/02/16 09:47:45;;;;;;;17.42;8.32;;;8.40;99.90;;;;;;4995818;28;20054;-73
2022/02/16 09:50:15;;;;;;;19.88;7.20;;;8.40;99.90;;;;;;5017869;28;20045;-74
2022/02/16 09:52:43;;;;;;;13.95;6.28;;;8.50;99.90;;;;;;4996263;28;20136;-73
2022/02/16 09:55:11;;;;;;;12.07;4.72;;;8.50;99.90;;;;;;5016035;28;20124;-73
2022/02/16 09:57:38;;;;;;;15.85;8.07;;;8.40;99.90;;;;;;5013384;28;20103;-73
2022/02/16 10:00:08;;;;;;;12.77;5.18;;;8.40;99.90;;;;;;5017285;28;20038;-74
2022/02/16 10:02:39;;;;;;;;;;;8.50;99.90;;;;;;5011641;28;20045;-74
2022/02/16 10:05:08;;;;;;;14.10;6.18;;;8.60;99.90;;;;;;5000695;28;19957;-73
2022/02/16 10:07:40;;;;;;;20.75;8.45;;;8.60;99.90;;;;;;5014821;28;20051;-73
2022/02/16 10:10:18;;;;;;;15.43;7.15;;;8.60;99.90;;;;;;5011147;28;20050;-74
2022/02/16 10:12:48;;;;;;;14.20;5.97;;;8.70;99.90;;;;;;5008975;28;20033;-74
2022/02/16 10:15:17;;;;;;;13.05;5.63;;;8.70;99.90;;;;;;5010594;28;20111;-74
2022/02/16 10:17:45;;;;;;;14.48;6.15;;;8.70;99.90;;;;;;5012749;28;20045;-73
2022/02/16 10:20:16;;;;;;;11.48;5.22;;;8.80;99.90;;;;;;5012138;28;20037;-74
2022/02/16 10:22:56;;;;;;;16.95;7.05;;;8.90;99.90;;;;;;5011979;28;20045;-74
2022/02/16 10:25:28;;;;;;;21.58;9.05;;;8.90;99.90;;;;;;5020969;28;20468;-74
2022/02/16 10:28:11;;;;;;;26.63;11.32;;;9.10;99.90;;;;;;5015565;28;20512;-74
2022/02/16 10:30:59;;;;;;;;;;;9.50;97.90;;;;;;5011268;28;20488;-74
2022/02/16 10:33:27;;;;;;;11.15;5.68;;;9.80;97.80;;;;;;5016540;28;20348;-74
2022/02/16 10:36:03;;;;;;;9.60;4.22;;;10.30;95.90;;;;;;5015285;28;20069;-74
2022/02/16 10:38:32;;;;;;;7.05;3.28;;;10.60;94.10;;;;;;5018140;28;20038;-74
2022/02/16 10:41:03;;;;;;;9.77;3.55;;;10.50;91.90;;;;;;5014660;28;20048;-74
2022/02/16 10:43:36;;;;;;;7.55;2.92;;;10.70;92.40;;;;;;5008641;28;20072;-73
2022/02/16 10:46:25;;;;;;;8.63;4.00;;;10.90;90.80;;;;;;5016574;28;20456;-74
2022/02/16 10:49:17;;;;;;;7.20;2.88;;;10.90;90.50;;;;;;5013817;28;20099;-74
2022/02/16 10:52:14;;;;;;;7.25;3.05;;;11.30;91.00;;;;;;5017331;28;20064;-74
2022/02/16 10:54:54;;;;;;;6.68;3.13;;;11.60;88.90;;;;;;5019328;28;20049;-73
2022/02/16 10:57:21;;;;;;;6.88;2.90;;;11.60;85.50;;;;;;5009945;28;20172;-74
2022/02/16 10:59:48;;;;;;;7.82;3.13;;;11.80;85.80;;;;;;5012147;28;20073;-74
2022/02/16 11:02:18;;;;;;;7.82;3.25;;;12.10;84.50;;;;;;5012177;28;20045;-74
2022/02/16 11:04:47;;;;;;;13.30;6.68;;;12.40;84.00;;;;;;5009447;28;20937;-74
2022/02/16 11:07:23;;;;;;;12.93;6.18;;;12.40;81.10;;;;;;5010491;28;20104;-74
2022/02/16 11:09:58;;;;;;;15.45;4.90;;;12.50;79.70;;;;;;5012340;28;20052;-74
2022/02/16 11:12:25;;;;;;;15.05;8.52;;;12.50;79.10;;;;;;5010229;28;20057;-74
2022/02/16 11:14:53;;;;;;;8.55;4.53;;;12.50;78.80;;;;;;5025847;28;20077;-74
2022/02/16 11:17:25;;;;;;;7.00;4.10;;;12.60;78.80;;;;;;5023344;28;20058;-74
2022/02/16 11:20:16;;;;;;;6.15;3.60;;;12.70;77.40;;;;;;5007964;28;20053;-74
2022/02/16 11:22:54;;;;;;;9.15;3.25;;;12.80;76.60;;;;;;4992490;28;20045;-74
2022/02/16 11:25:41;;;;;;;6.45;2.95;;;12.70;75.60;;;;;;5013428;28;20051;-74
2022/02/16 11:28:12;;;;;;;6.47;3.50;;;12.40;77.30;;;;;;5031469;28;20036;-74
2022/02/16 11:30:47;;;;;;;;;;;12.20;76.50;;;;;;5019339;28;20167;-74
2022/02/16 11:33:19;;;;;;;7.38;3.33;;;12.30;75.60;;;;;;5010727;28;19977;-74
2022/02/16 11:35:57;;;;;;;7.90;2.95;;;12.60;74.60;;;;;;5014252;28;20796;-74
2022/02/16 11:38:43;;;;;;;7.10;3.35;;;12.80;74.90;;;;;;5028667;28;20047;-74
2022/02/16 11:41:29;;;;;;;9.35;4.40;;;12.90;74.60;;;;;;5032240;28;20045;-74
2022/02/16 11:44:00;;;;;;;6.57;3.42;;;12.70;74.40;;;;;;5026925;28;20049;-74
2022/02/16 11:46:44;;;;;;;8.23;3.50;;;12.80;74.50;;;;;;5020782;28;20781;-74
2022/02/16 11:49:26;;;;;;;6.93;3.00;;;12.80;73.60;;;;;;5033197;28;20033;-74
2022/02/16 11:51:55;;;;;;;6.27;3.13;;;12.60;73.30;;;;;;5007297;28;20055;-74
2022/02/16 11:54:49;;;;;;;6.95;3.92;;;12.90;72.50;;;;;;5036348;28;20046;-74
2022/02/16 11:57:45;;;;;;;6.32;2.80;;;12.80;71.70;;;;;;5030856;28;20129;-74
2022/02/16 12:00:18;;;;;;;5.00;2.65;;;12.90;70.00;;;;;;5010205;28;20037;-74
2022/02/16 12:03:06;;;;;;;7.27;3.77;;;13.10;70.00;;;;;;5013267;28;20068;-74
2022/02/16 12:05:49;;;;;;;9.10;4.00;;;13.10;71.20;;;;;;5027996;28;20045;-74
2022/02/16 12:08:30;;;;;;;8.77;3.92;;;13.40;70.50;;;;;;5009455;28;20182;-74
2022/02/16 12:14:13;;;;;;;7.18;2.85;;;13.40;69.20;;;;;;5037611;28;20123;-74
2022/02/16 12:16:42;;;;;;;8.88;4.00;;;13.10;69.30;;;;;;5030501;28;20049;-74
2022/02/16 12:19:13;;;;;;;8.68;3.95;;;13.10;69.50;;;;;;5032089;28;20525;-74
2022/02/16 12:21:43;;;;;;;9.32;3.83;;;13.20;70.00;;;;;;5029657;28;20052;-74
2022/02/16 12:24:15;;;;;;;10.63;3.90;;;13.60;69.80;;;;;;5018946;28;20940;-74
2022/02/16 12:26:45;;;;;;;5.88;3.25;;;13.90;67.60;;;;;;5035285;28;20060;-73
2022/02/16 12:29:17;;;;;;;10.02;4.60;;;13.80;66.60;;;;;;5030531;28;20061;-74
2022/02/16 12:31:46;;;;;;;8.70;3.28;;;13.60;67.20;;;;;;5032515;28;20040;-74
2022/02/16 12:34:17;;;;;;;8.25;3.92;;;13.30;67.30;;;;;;4992333;28;20239;-74
2022/02/16 12:36:55;;;;;;;13.75;5.82;;;13.40;68.30;;;;;;5032632;28;20033;-74
2022/02/16 12:39:29;;;;;;;9.43;4.45;;;13.50;68.30;;;;;;5035257;28;20057;-74
2022/02/16 12:42:04;;;;;;;8.95;4.53;;;13.50;67.30;;;;;;5026942;28;21152;-74
2022/02/16 12:44:33;;;;;;;8.02;4.25;;;13.60;67.10;;;;;;5010400;28;20423;-74
2022/02/16 12:47:03;;;;;;;9.02;3.97;;;13.70;66.40;;;;;;5018070;28;20099;-74
2022/02/16 12:49:31;;;;;;;10.25;4.05;;;13.60;67.10;;;;;;5021794;28;20046;-74
2022/02/16 12:52:00;;;;;;;9.85;4.38;;;13.60;66.80;;;;;;5016717;28;20053;-74
2022/02/16 12:54:30;;;;;;;10.77;4.85;;;13.50;67.20;;;;;;5016860;28;20047;-74
2022/02/16 12:57:03;;;;;;;9.48;4.15;;;13.40;67.90;;;;;;5017280;28;20052;-74
2022/02/16 13:02:31;;;;;;;10.43;5.13;;;13.20;68.70;;;;;;5033100;28;20037;-74